createdAt,value
2019-02-24T00:00:03.359Z,1040.7
2019-02-24T00:01:03.678Z,1040.8
2019-02-24T00:02:03.323Z,1040.6
2019-02-24T00:03:03.129Z,1040.7
2019-02-24T00:04:03.478Z,1040.6
2019-02-24T00:05:03.539Z,1040.7
2019-02-24T00:06:03.040Z,1040.7
2019-02-24T00:07:03.779Z,1040.6
2019-02-24T00:08:03.026Z,1040.6
2019-02-24T00:09:03.734Z,1040.6
2019-02-24T00:10:03.336Z,1040.6
2019-02-24T00:11:02.896Z,1040.6
2019-02-24T00:12:03.242Z,1040.6
2019-02-24T00:13:03.909Z,1040.7
2019-02-24T00:14:03.173Z,1040.6
2019-02-24T00:15:03.895Z,1040.6
2019-02-24T00:16:03.165Z,1040.6
2019-02-24T00:17:03.711Z,1040.6
2019-02-24T00:18:03.228Z,1040.5
2019-02-24T00:19:04.196Z,1040.6
2019-02-24T00:20:03.394Z,1040.6
2019-02-24T00:21:03.948Z,1040.6
2019-02-24T00:22:01.981Z,1040.5
2019-02-24T00:23:03.099Z,1040.7
2019-02-24T00:24:03.320Z,1040.6
2019-02-24T00:25:03.712Z,1040.6
2019-02-24T00:26:05.069Z,1040.5
2019-02-24T00:27:03.940Z,1040.6
2019-02-24T00:28:07.779Z,1040.6
2019-02-24T00:29:03.695Z,1040.6
2019-02-24T00:30:03.271Z,1040.7
2019-02-24T00:31:03.704Z,1040.8
2019-02-24T00:32:03.863Z,1040.7
2019-02-24T00:33:03.361Z,1040.6
2019-02-24T00:34:03.893Z,1040.7
2019-02-24T00:35:03.167Z,1040.7
2019-02-24T00:36:03.849Z,1040.6
2019-02-24T00:37:03.056Z,1040.6
2019-02-24T00:38:03.818Z,1040.6
2019-02-24T00:39:03.285Z,1040.6
2019-02-24T00:40:03.678Z,1040.6
2019-02-24T00:41:03.519Z,1040.6
2019-02-24T00:42:03.640Z,1040.7
2019-02-24T00:43:03.874Z,1040.6
2019-02-24T00:44:02.985Z,1040.7
2019-02-24T00:45:03.427Z,1040.7
2019-02-24T00:46:02.950Z,1040.8
2019-02-24T00:47:03.402Z,1040.7
2019-02-24T00:48:03.164Z,1040.8
2019-02-24T00:49:03.937Z,1040.8
2019-02-24T00:50:03.481Z,1040.8
2019-02-24T00:51:03.713Z,1040.8
2019-02-24T00:52:03.437Z,1040.7
2019-02-24T00:53:03.950Z,1040.8
2019-02-24T00:54:03.556Z,1040.8
2019-02-24T00:55:03.293Z,1040.8
2019-02-24T00:56:03.345Z,1040.8
2019-02-24T00:57:03.654Z,1040.9
2019-02-24T00:58:03.296Z,1040.9
2019-02-24T00:59:03.671Z,1040.9
2019-02-24T01:00:03.122Z,1040.9
2019-02-24T01:01:03.985Z,1040.9
2019-02-24T01:02:03.102Z,1040.9
2019-02-24T01:03:03.243Z,1040.9
2019-02-24T01:04:03.396Z,1040.8
2019-02-24T01:05:04.007Z,1040.9
2019-02-24T01:06:03.509Z,1040.8
2019-02-24T01:07:03.703Z,1040.9
2019-02-24T01:08:03.103Z,1040.9
2019-02-24T01:09:03.644Z,1040.8
2019-02-24T01:10:03.232Z,1040.9
2019-02-24T01:11:03.520Z,1040.9
2019-02-24T01:12:02.939Z,1040.9
2019-02-24T01:13:03.416Z,1040.9
2019-02-24T01:14:04.013Z,1040.9
2019-02-24T01:15:03.663Z,1040.9
2019-02-24T01:16:03.126Z,1040.9
2019-02-24T01:17:03.512Z,1040.9
2019-02-24T01:18:04.089Z,1041
2019-02-24T01:19:03.162Z,1041
2019-02-24T01:20:03.724Z,1041
2019-02-24T01:21:02.956Z,1040.9
2019-02-24T01:22:03.923Z,1040.9
2019-02-24T01:23:03.276Z,1040.9
2019-02-24T01:24:03.827Z,1040.8
2019-02-24T01:25:03.300Z,1040.8
2019-02-24T01:26:03.490Z,1040.9
2019-02-24T01:27:03.924Z,1040.9
2019-02-24T01:28:03.494Z,1040.8
2019-02-24T01:29:03.045Z,1040.8
2019-02-24T01:30:03.657Z,1040.7
2019-02-24T01:31:03.154Z,1040.7
2019-02-24T01:32:03.718Z,1040.7
2019-02-24T01:33:03.170Z,1040.7
2019-02-24T01:34:03.407Z,1040.7
2019-02-24T01:35:03.082Z,1040.5
2019-02-24T01:36:03.440Z,1040.5
2019-02-24T01:37:03.759Z,1040.5
2019-02-24T01:38:03.304Z,1040.5
2019-02-24T01:39:03.985Z,1040.7
2019-02-24T01:40:03.317Z,1040.4
2019-02-24T01:41:03.058Z,1040.4
2019-02-24T01:42:03.022Z,1040.4
2019-02-24T01:43:03.979Z,1040.4
2019-02-24T01:44:03.078Z,1040.5
2019-02-24T01:45:03.921Z,1040.4
2019-02-24T01:46:03.061Z,1040.3
2019-02-24T01:47:03.792Z,1040.5
2019-02-24T01:48:02.887Z,1040.4
2019-02-24T01:49:03.660Z,1040.4
2019-02-24T01:50:03.934Z,1040.4
2019-02-24T01:51:03.433Z,1040.4
2019-02-24T01:52:04.710Z,1040.4
2019-02-24T01:53:02.936Z,1040.5
2019-02-24T01:54:03.683Z,1040.5
2019-02-24T01:55:03.960Z,1040.4
2019-02-24T01:56:03.118Z,1040.4
2019-02-24T01:57:02.948Z,1040.4
2019-02-24T01:58:03.501Z,1040.5
2019-02-24T01:59:03.902Z,1040.4
2019-02-24T02:00:03.673Z,1040.3
2019-02-24T02:01:02.941Z,1040.3
2019-02-24T02:02:03.117Z,1040.4
2019-02-24T02:03:03.779Z,1040.3
2019-02-24T02:04:03.632Z,1040.4
2019-02-24T02:05:03.661Z,1040.4
2019-02-24T02:06:03.061Z,1040.4
2019-02-24T02:07:03.400Z,1040.5
2019-02-24T02:08:03.808Z,1040.4
2019-02-24T02:09:03.252Z,1040.4
2019-02-24T02:10:04.187Z,1040.4
2019-02-24T02:11:03.172Z,1040.5
2019-02-24T02:12:03.703Z,1040.4
2019-02-24T02:13:03.443Z,1040.3
2019-02-24T02:14:03.734Z,1040.3
2019-02-24T02:15:03.325Z,1040.3
2019-02-24T02:16:03.483Z,1040.3
2019-02-24T02:17:03.072Z,1040.3
2019-02-24T02:18:03.219Z,1040.3
2019-02-24T02:19:02.879Z,1040.4
2019-02-24T02:20:03.280Z,1040.4
2019-02-24T02:21:03.541Z,1040.3
2019-02-24T02:22:03.780Z,1040.4
2019-02-24T02:23:03.048Z,1040.4
2019-02-24T02:24:02.876Z,1040.4
2019-02-24T02:25:03.672Z,1040.3
2019-02-24T02:26:02.843Z,1040.3
2019-02-24T02:27:03.661Z,1040.3
2019-02-24T02:28:03.949Z,1040.3
2019-02-24T02:29:03.458Z,1040.3
2019-02-24T02:30:03.932Z,1040.2
2019-02-24T02:31:03.116Z,1040.3
2019-02-24T02:32:03.792Z,1040.3
2019-02-24T02:33:03.222Z,1040.2
2019-02-24T02:34:03.668Z,1040.3
2019-02-24T02:35:03.535Z,1040.4
2019-02-24T02:36:03.584Z,1040.4
2019-02-24T02:37:03.178Z,1040.3
2019-02-24T02:38:03.795Z,1040.4
2019-02-24T02:39:03.408Z,1040.4
2019-02-24T02:40:03.841Z,1040.4
2019-02-24T02:41:03.278Z,1040.4
2019-02-24T02:42:03.375Z,1040.4
2019-02-24T02:43:03.109Z,1040.4
2019-02-24T02:44:03.797Z,1040.4
2019-02-24T02:45:03.391Z,1040.3
2019-02-24T02:46:03.592Z,1040.3
2019-02-24T02:47:02.931Z,1040.4
2019-02-24T02:48:03.147Z,1040.4
2019-02-24T02:49:05.009Z,1040.5
2019-02-24T02:50:03.524Z,1040.5
2019-02-24T02:51:03.912Z,1040.3
2019-02-24T02:52:03.051Z,1040.3
2019-02-24T02:53:03.339Z,1040.3
2019-02-24T02:54:03.908Z,1040.3
2019-02-24T02:55:03.231Z,1040.4
2019-02-24T02:56:02.896Z,1040.4
2019-02-24T02:57:03.320Z,1040.4
2019-02-24T02:58:03.567Z,1040.4
2019-02-24T02:59:03.108Z,1040.5
2019-02-24T03:00:03.549Z,1040.5
2019-02-24T03:01:03.926Z,1040.5
2019-02-24T03:02:03.711Z,1040.5
2019-02-24T03:03:03.119Z,1040.5
2019-02-24T03:04:03.351Z,1040.5
2019-02-24T03:05:03.782Z,1040.5
2019-02-24T03:06:02.928Z,1040.5
2019-02-24T03:07:03.636Z,1040.5
2019-02-24T03:08:03.828Z,1040.5
2019-02-24T03:09:03.346Z,1040.5
2019-02-24T03:10:04.072Z,1040.5
2019-02-24T03:11:03.333Z,1040.5
2019-02-24T03:12:03.101Z,1040.5
2019-02-24T03:13:03.408Z,1040.4
2019-02-24T03:14:03.267Z,1040.3
2019-02-24T03:15:03.931Z,1040.5
2019-02-24T03:16:03.964Z,1040.4
2019-02-24T03:17:03.508Z,1040.5
2019-02-24T03:18:03.784Z,1040.4
2019-02-24T03:19:03.717Z,1040.4
2019-02-24T03:20:02.929Z,1040.4
2019-02-24T03:21:03.387Z,1040.4
2019-02-24T03:22:03.084Z,1040.4
2019-02-24T03:23:03.482Z,1040.5
2019-02-24T03:24:03.813Z,1040.4
2019-02-24T03:25:03.324Z,1040.4
2019-02-24T03:26:02.960Z,1040.3
2019-02-24T03:27:03.179Z,1040.3
2019-02-24T03:28:03.809Z,1040.3
2019-02-24T03:29:04.963Z,1040.3
2019-02-24T03:30:03.934Z,1040.2
2019-02-24T03:31:03.066Z,1040.2
2019-02-24T03:32:03.386Z,1040.2
2019-02-24T03:33:03.878Z,1040.2
2019-02-24T03:34:03.179Z,1040.2
2019-02-24T03:35:04.022Z,1040.2
2019-02-24T03:36:03.129Z,1040.1
2019-02-24T03:37:03.507Z,1040.1
2019-02-24T03:38:02.862Z,1040.1
2019-02-24T03:39:03.896Z,1040.1
2019-02-24T03:40:03.325Z,1040.3
2019-02-24T03:41:03.578Z,1040.2
2019-02-24T03:42:04.058Z,1040.2
2019-02-24T03:43:03.354Z,1040.3
2019-02-24T03:44:03.654Z,1040.2
2019-02-24T03:45:03.183Z,1040.2
2019-02-24T03:46:03.991Z,1040.2
2019-02-24T03:47:03.534Z,1040.2
2019-02-24T03:48:03.761Z,1040.3
2019-02-24T03:49:02.983Z,1040.2
2019-02-24T03:50:03.714Z,1040.2
2019-02-24T03:51:03.062Z,1040.2
2019-02-24T03:52:03.461Z,1040.1
2019-02-24T03:53:03.090Z,1040.1
2019-02-24T03:54:03.134Z,1040.1
2019-02-24T03:55:03.855Z,1040.3
2019-02-24T03:56:03.209Z,1040.2
2019-02-24T03:57:04.015Z,1040.2
2019-02-24T03:58:03.011Z,1040.2
2019-02-24T03:59:11.863Z,1040.1
2019-02-24T04:00:03.535Z,1040.2
2019-02-24T04:01:04.027Z,1040.1
2019-02-24T04:02:03.309Z,1040.1
2019-02-24T04:03:03.721Z,1040.2
2019-02-24T04:04:03.407Z,1040.2
2019-02-24T04:05:04.014Z,1040.2
2019-02-24T04:06:03.851Z,1040.1
2019-02-24T04:07:03.694Z,1040.1
2019-02-24T04:08:03.244Z,1040.1
2019-02-24T04:09:03.634Z,1040.2
2019-02-24T04:10:02.955Z,1040.2
2019-02-24T04:11:03.797Z,1040.3
2019-02-24T04:12:03.264Z,1040.2
2019-02-24T04:13:03.604Z,1040.2
2019-02-24T04:14:03.161Z,1040.3
2019-02-24T04:15:03.757Z,1040.3
2019-02-24T04:16:03.600Z,1040.2
2019-02-24T04:17:03.152Z,1040.3
2019-02-24T04:18:03.841Z,1040.3
2019-02-24T04:19:03.024Z,1040.3
2019-02-24T04:20:03.050Z,1040.3
2019-02-24T04:21:04.072Z,1040.3
2019-02-24T04:22:03.336Z,1040.2
2019-02-24T04:23:03.759Z,1040.4
2019-02-24T04:24:03.091Z,1040.4
2019-02-24T04:25:03.727Z,1040.3
2019-02-24T04:26:03.225Z,1040.3
2019-02-24T04:27:03.578Z,1040.5
2019-02-24T04:28:03.100Z,1040.3
2019-02-24T04:29:03.455Z,1040.3
2019-02-24T04:30:04.053Z,1040.3
2019-02-24T04:31:03.417Z,1040.2
2019-02-24T04:32:03.773Z,1040.3
2019-02-24T04:33:03.188Z,1040.3
2019-02-24T04:34:03.278Z,1040.4
2019-02-24T04:35:03.859Z,1040.4
2019-02-24T04:36:03.354Z,1040.3
2019-02-24T04:37:04.162Z,1040.3
2019-02-24T04:38:03.015Z,1040.3
2019-02-24T04:39:03.745Z,1040.3
2019-02-24T04:40:03.145Z,1040.3
2019-02-24T04:41:03.776Z,1040.4
2019-02-24T04:42:02.989Z,1040.3
2019-02-24T04:43:03.473Z,1040.4
2019-02-24T04:44:03.245Z,1040.4
2019-02-24T04:45:03.404Z,1040.4
2019-02-24T04:46:03.726Z,1040.4
2019-02-24T04:47:03.316Z,1040.5
2019-02-24T04:48:03.474Z,1040.5
2019-02-24T04:49:03.013Z,1040.4
2019-02-24T04:50:03.646Z,1040.4
2019-02-24T04:51:03.846Z,1040.5
2019-02-24T04:52:03.219Z,1040.4
2019-02-24T04:53:03.621Z,1040.5
2019-02-24T04:54:03.247Z,1040.4
2019-02-24T04:55:03.453Z,1040.5
2019-02-24T04:56:03.228Z,1040.5
2019-02-24T04:57:03.638Z,1040.5
2019-02-24T04:58:04.198Z,1040.5
2019-02-24T04:59:03.448Z,1040.6
2019-02-24T05:00:03.170Z,1040.5
2019-02-24T05:01:03.530Z,1040.5
2019-02-24T05:02:02.973Z,1040.5
2019-02-24T05:03:03.472Z,1040.5
2019-02-24T05:04:03.021Z,1040.5
2019-02-24T05:05:03.438Z,1040.6
2019-02-24T05:06:03.078Z,1040.6
2019-02-24T05:07:03.345Z,1040.5
2019-02-24T05:08:03.870Z,1040.6
2019-02-24T05:09:03.479Z,1040.5
2019-02-24T05:10:03.298Z,1040.5
2019-02-24T05:11:03.075Z,1040.4
2019-02-24T05:12:03.656Z,1040.5
2019-02-24T05:13:03.245Z,1040.4
2019-02-24T05:14:03.398Z,1040.5
2019-02-24T05:15:03.974Z,1040.4
2019-02-24T05:16:03.888Z,1040.4
2019-02-24T05:17:03.336Z,1040.4
2019-02-24T05:18:03.776Z,1040.4
2019-02-24T05:19:03.386Z,1040.4
2019-02-24T05:20:03.969Z,1040.4
2019-02-24T05:21:03.724Z,1040.4
2019-02-24T05:22:03.751Z,1040.5
2019-02-24T05:23:03.119Z,1040.5
2019-02-24T05:24:03.516Z,1040.6
2019-02-24T05:25:04.015Z,1040.4
2019-02-24T05:26:03.543Z,1040.5
2019-02-24T05:27:03.079Z,1040.5
2019-02-24T05:28:03.132Z,1040.4
2019-02-24T05:29:03.507Z,1040.4
2019-02-24T05:30:03.157Z,1040.5
2019-02-24T05:31:03.873Z,1040.4
2019-02-24T05:32:02.975Z,1040.4
2019-02-24T05:33:03.711Z,1040.3
2019-02-24T05:34:02.913Z,1040.4
2019-02-24T05:35:03.693Z,1040.4
2019-02-24T05:36:03.852Z,1040.3
2019-02-24T05:37:03.629Z,1040.4
2019-02-24T05:38:03.018Z,1040.4
2019-02-24T05:39:03.362Z,1040.3
2019-02-24T05:40:03.092Z,1040.4
2019-02-24T05:41:03.239Z,1040.3
2019-02-24T05:42:03.600Z,1040.3
2019-02-24T05:43:03.193Z,1040.3
2019-02-24T05:44:03.753Z,1040.3
2019-02-24T05:45:03.200Z,1040.4
2019-02-24T05:46:04.184Z,1040.4
2019-02-24T05:47:03.095Z,1040.4
2019-02-24T05:48:03.544Z,1040.4
2019-02-24T05:49:03.829Z,1040.4
2019-02-24T05:50:03.847Z,1040.4
2019-02-24T05:51:03.309Z,1040.5
2019-02-24T05:52:03.732Z,1040.5
2019-02-24T05:53:03.879Z,1040.5
2019-02-24T05:54:03.243Z,1040.5
2019-02-24T05:55:03.751Z,1040.5
2019-02-24T05:56:03.242Z,1040.5
2019-02-24T05:57:04.028Z,1040.5
2019-02-24T05:58:03.045Z,1040.5
2019-02-24T05:59:03.970Z,1040.7
2019-02-24T06:00:03.398Z,1040.7
2019-02-24T06:01:03.725Z,1040.7
2019-02-24T06:02:03.876Z,1040.7
2019-02-24T06:03:03.809Z,1040.7
2019-02-24T06:04:03.024Z,1040.7
2019-02-24T06:05:03.758Z,1040.8
2019-02-24T06:06:03.911Z,1040.8
2019-02-24T06:07:03.119Z,1040.7
2019-02-24T06:08:03.578Z,1040.8
2019-02-24T06:09:03.347Z,1040.7
2019-02-24T06:10:03.652Z,1040.6
2019-02-24T06:11:03.143Z,1040.6
2019-02-24T06:12:03.848Z,1040.6
2019-02-24T06:13:02.874Z,1040.6
2019-02-24T06:14:03.481Z,1040.6
2019-02-24T06:15:04.147Z,1040.6
2019-02-24T06:16:03.002Z,1040.8
2019-02-24T06:17:04.005Z,1040.7
2019-02-24T06:18:03.502Z,1040.6
2019-02-24T06:19:03.765Z,1040.7
2019-02-24T06:20:03.448Z,1040.7
2019-02-24T06:21:03.839Z,1040.8
2019-02-24T06:22:03.810Z,1040.6
2019-02-24T06:23:03.435Z,1040.8
2019-02-24T06:24:03.182Z,1040.9
2019-02-24T06:25:03.562Z,1040.7
2019-02-24T06:26:03.919Z,1040.8
2019-02-24T06:27:03.300Z,1040.8
2019-02-24T06:28:03.750Z,1040.8
2019-02-24T06:29:03.079Z,1040.8
2019-02-24T06:30:06.224Z,1040.9
2019-02-24T06:31:03.248Z,1040.9
2019-02-24T06:32:03.734Z,1040.9
2019-02-24T06:33:03.168Z,1041
2019-02-24T06:34:03.551Z,1040.8
2019-02-24T06:35:03.298Z,1041.1
2019-02-24T06:36:03.465Z,1040.8
2019-02-24T06:37:03.082Z,1041
2019-02-24T06:38:03.139Z,1041
2019-02-24T06:39:03.968Z,1041.1
2019-02-24T06:40:03.086Z,1040.9
2019-02-24T06:41:04.022Z,1041.1
2019-02-24T06:42:03.338Z,1041.1
2019-02-24T06:43:03.873Z,1041.1
2019-02-24T06:44:03.434Z,1041.1
2019-02-24T06:45:03.828Z,1041.2
2019-02-24T06:46:03.313Z,1041.2
2019-02-24T06:47:03.853Z,1041.2
2019-02-24T06:48:03.350Z,1041.2
2019-02-24T06:49:03.600Z,1041.3
2019-02-24T06:50:03.283Z,1041.3
2019-02-24T06:51:03.731Z,1041.3
2019-02-24T06:52:03.005Z,1041.3
2019-02-24T06:53:03.447Z,1041.2
2019-02-24T06:54:03.805Z,1041.2
2019-02-24T06:55:03.291Z,1041.3
2019-02-24T06:56:03.017Z,1041.3
2019-02-24T06:57:03.375Z,1041.2
2019-02-24T06:58:03.113Z,1041.2
2019-02-24T06:59:03.569Z,1041.2
2019-02-24T07:00:03.908Z,1041.2
2019-02-24T07:01:03.172Z,1041.2
2019-02-24T07:02:03.903Z,1041.2
2019-02-24T07:03:03.233Z,1041.1
2019-02-24T07:04:03.599Z,1041.2
2019-02-24T07:05:03.655Z,1041.2
2019-02-24T07:06:02.998Z,1041.2
2019-02-24T07:07:03.328Z,1041.2
2019-02-24T07:08:03.035Z,1041.2
2019-02-24T07:09:03.551Z,1041.1
2019-02-24T07:10:03.154Z,1041.1
2019-02-24T07:11:03.590Z,1041.1
2019-02-24T07:12:03.076Z,1041.1
2019-02-24T07:13:03.284Z,1041.1
2019-02-24T07:14:03.810Z,1041
2019-02-24T07:15:03.260Z,1041
2019-02-24T07:16:03.717Z,1041
2019-02-24T07:17:03.992Z,1040.9
2019-02-24T07:18:03.962Z,1040.8
2019-02-24T07:19:04.047Z,1040.8
2019-02-24T07:20:03.402Z,1040.8
2019-02-24T07:21:03.469Z,1040.6
2019-02-24T07:22:04.003Z,1040.6
2019-02-24T07:23:03.398Z,1040.6
2019-02-24T07:24:03.212Z,1040.6
2019-02-24T07:25:03.527Z,1040.5
2019-02-24T07:26:03.534Z,1040.4
2019-02-24T07:27:03.378Z,1040.4
2019-02-24T07:28:03.821Z,1040.3
2019-02-24T07:29:03.695Z,1040.3
2019-02-24T07:30:03.155Z,1040.1
2019-02-24T07:31:03.737Z,1040.2
2019-02-24T07:32:02.785Z,1040
2019-02-24T07:33:03.319Z,1040
2019-02-24T07:34:02.831Z,1039.8
2019-02-24T07:35:03.484Z,1039.8
2019-02-24T07:36:03.907Z,1039.8
2019-02-24T07:37:13.521Z,1039.7
2019-02-24T07:38:03.895Z,1039.6
2019-02-24T07:39:03.541Z,1039.5
2019-02-24T07:40:03.793Z,1039.5
2019-02-24T07:41:03.360Z,1039.4
2019-02-24T07:42:03.558Z,1039.3
2019-02-24T07:43:03.157Z,1039.2
2019-02-24T07:44:03.632Z,1039.1
2019-02-24T07:45:03.235Z,1039
2019-02-24T07:46:03.651Z,1039
2019-02-24T07:47:02.836Z,1039
2019-02-24T07:48:03.588Z,1039
2019-02-24T07:49:03.134Z,1039
2019-02-24T07:50:03.575Z,1039
2019-02-24T07:51:02.887Z,1038.9
2019-02-24T07:52:03.436Z,1038.9
2019-02-24T07:53:02.976Z,1038.8
2019-02-24T07:54:03.495Z,1038.7
2019-02-24T07:55:03.073Z,1038.7
2019-02-24T07:56:03.434Z,1038.7
2019-02-24T07:57:02.782Z,1038.6
2019-02-24T07:58:03.075Z,1038.5
2019-02-24T07:59:03.773Z,1038.6
2019-02-24T08:00:03.354Z,1038.5
2019-02-24T08:01:03.025Z,1038.6
2019-02-24T08:02:03.449Z,1038.5
2019-02-24T08:03:03.935Z,1038.7
2019-02-24T08:04:03.386Z,1038.7
2019-02-24T08:05:04.109Z,1038.7
2019-02-24T08:06:03.517Z,1038.8
2019-02-24T08:07:03.851Z,1038.7
2019-02-24T08:08:03.828Z,1038.6
2019-02-24T08:09:03.704Z,1038.6
2019-02-24T08:10:03.070Z,1038.6
2019-02-24T08:11:03.462Z,1038.6
2019-02-24T08:12:03.204Z,1038.6
2019-02-24T08:13:03.627Z,1038.6
2019-02-24T08:14:04.138Z,1038.6
2019-02-24T08:15:03.588Z,1038.4
2019-02-24T08:16:03.764Z,1038.5
2019-02-24T08:17:03.255Z,1038.6
2019-02-24T08:18:03.684Z,1038.7
2019-02-24T08:19:03.142Z,1038.7
2019-02-24T08:20:03.437Z,1038.7
2019-02-24T08:21:03.669Z,1038.7
2019-02-24T08:22:03.310Z,1038.7
2019-02-24T08:23:03.888Z,1038.6
2019-02-24T08:24:03.118Z,1038.6
2019-02-24T08:25:03.714Z,1038.6
2019-02-24T08:26:03.227Z,1038.5
2019-02-24T08:27:02.835Z,1038.4
2019-02-24T08:28:03.369Z,1038.3
2019-02-24T08:29:03.852Z,1038.3
2019-02-24T08:30:03.511Z,1038.3
2019-02-24T08:31:03.964Z,1038.3
2019-02-24T08:32:03.281Z,1038.3
2019-02-24T08:33:03.816Z,1038.4
2019-02-24T08:34:03.246Z,1038.4
2019-02-24T08:35:03.708Z,1038.4
2019-02-24T08:36:03.170Z,1038.5
2019-02-24T08:37:03.709Z,1038.3
2019-02-24T08:38:03.127Z,1038.4
2019-02-24T08:39:03.914Z,1038.5
2019-02-24T08:40:03.161Z,1038.4
2019-02-24T08:41:03.642Z,1038.4
2019-02-24T08:42:03.465Z,1038.5
2019-02-24T08:43:03.418Z,1038.5
2019-02-24T08:44:02.927Z,1038.6
2019-02-24T08:45:03.453Z,1038.9
2019-02-24T08:46:03.969Z,1039
2019-02-24T08:47:03.276Z,1039
2019-02-24T08:48:03.682Z,1039
2019-02-24T08:49:03.831Z,1039.2
2019-02-24T08:50:03.232Z,1039.2
2019-02-24T08:51:03.667Z,1039
2019-02-24T08:52:03.562Z,1039.2
2019-02-24T08:53:03.586Z,1038.9
2019-02-24T08:54:03.400Z,1039
2019-02-24T08:55:03.951Z,1038.9
2019-02-24T08:56:04.039Z,1038.8
2019-02-24T08:57:03.566Z,1038.8
2019-02-24T08:58:03.862Z,1038.9
2019-02-24T08:59:03.577Z,1038.9
2019-02-24T09:00:03.222Z,1039
2019-02-24T09:01:03.524Z,1038.7
2019-02-24T09:02:03.618Z,1038.6
2019-02-24T09:03:03.098Z,1038.6
2019-02-24T09:04:03.883Z,1038.5
2019-02-24T09:05:03.753Z,1038.7
2019-02-24T09:06:03.513Z,1038.7
2019-02-24T09:07:03.908Z,1038.7
2019-02-24T09:08:03.322Z,1038.8
2019-02-24T09:09:03.847Z,1038.8
2019-02-24T09:10:03.309Z,1038.8
2019-02-24T09:11:03.832Z,1038.8
2019-02-24T09:12:03.195Z,1038.8
2019-02-24T09:13:03.454Z,1038.8
2019-02-24T09:14:03.162Z,1038.9
2019-02-24T09:15:03.578Z,1039
2019-02-24T09:16:03.777Z,1039.1
2019-02-24T09:17:03.478Z,1039.1
2019-02-24T09:18:03.111Z,1039.1
2019-02-24T09:19:03.211Z,1039.1
2019-02-24T09:20:04.083Z,1039.1
2019-02-24T09:21:03.156Z,1039
2019-02-24T09:22:03.058Z,1039
2019-02-24T09:23:03.586Z,1038.9
2019-02-24T09:24:02.913Z,1038.8
2019-02-24T09:25:03.953Z,1038.9
2019-02-24T09:26:03.038Z,1038.8
2019-02-24T09:27:03.578Z,1038.7
2019-02-24T09:28:03.156Z,1038.7
2019-02-24T09:29:03.321Z,1038.7
2019-02-24T09:30:03.244Z,1038.7
2019-02-24T09:31:03.509Z,1038.8
2019-02-24T09:32:03.260Z,1038.7
2019-02-24T09:33:03.678Z,1038.8
2019-02-24T09:34:03.008Z,1038.8
2019-02-24T09:35:03.744Z,1038.8
2019-02-24T09:36:03.044Z,1038.7
2019-02-24T09:37:03.616Z,1038.8
2019-02-24T09:38:03.273Z,1038.8
2019-02-24T09:39:03.429Z,1038.6
2019-02-24T09:40:04.068Z,1038.6
2019-02-24T09:41:03.312Z,1038.6
2019-02-24T09:42:03.891Z,1038.5
2019-02-24T09:43:03.403Z,1038.5
2019-02-24T09:44:03.944Z,1038.5
2019-02-24T09:45:03.267Z,1038.5
2019-02-24T09:46:03.348Z,1038.4
2019-02-24T09:47:03.713Z,1038.4
2019-02-24T09:48:03.343Z,1038.4
2019-02-24T09:49:03.148Z,1038.3
2019-02-24T09:50:03.839Z,1038.2
2019-02-24T09:51:03.741Z,1038.2
2019-02-24T09:52:03.321Z,1038.1
2019-02-24T09:53:03.582Z,1038
2019-02-24T09:54:02.915Z,1037.8
2019-02-24T09:55:03.483Z,1037.9
2019-02-24T09:56:03.108Z,1037.7
2019-02-24T09:57:03.708Z,1037.7
2019-02-24T09:58:03.119Z,1037.9
2019-02-24T09:59:03.210Z,1037.7
2019-02-24T10:00:03.624Z,1037.8
2019-02-24T10:01:11.401Z,1037.7
2019-02-24T10:02:03.942Z,1037.7
2019-02-24T10:03:03.533Z,1037.7
2019-02-24T10:04:03.964Z,1037.7
2019-02-24T10:05:03.602Z,1038
2019-02-24T10:06:03.309Z,1037.9
2019-02-24T10:07:02.990Z,1038
2019-02-24T10:08:03.560Z,1037.9
2019-02-24T10:09:03.063Z,1038
2019-02-24T10:10:03.892Z,1038.1
2019-02-24T10:11:03.948Z,1038.1
2019-02-24T10:12:03.171Z,1038.3
2019-02-24T10:13:03.951Z,1038.3
2019-02-24T10:14:03.221Z,1038.2
2019-02-24T10:15:03.522Z,1038.3
2019-02-24T10:16:03.331Z,1038.4
2019-02-24T10:17:03.677Z,1038.4
2019-02-24T10:18:02.855Z,1038.4
2019-02-24T10:19:03.319Z,1038.4
2019-02-24T10:20:03.035Z,1038.4
2019-02-24T10:21:02.190Z,1038.5
2019-02-24T10:22:02.805Z,1038.5
2019-02-24T10:23:03.562Z,1038.5
2019-02-24T10:24:03.922Z,1038.5
2019-02-24T10:25:03.439Z,1038.6
2019-02-24T10:26:03.737Z,1038.5
2019-02-24T10:27:03.064Z,1038.5
2019-02-24T10:28:03.611Z,1038.4
2019-02-24T10:29:03.285Z,1038.5
2019-02-24T10:30:04.112Z,1038.5
2019-02-24T10:31:03.868Z,1038.5
2019-02-24T10:32:03.466Z,1038.5
2019-02-24T10:33:03.846Z,1038.5
2019-02-24T10:34:03.431Z,1038.5
2019-02-24T10:35:03.857Z,1038.5
2019-02-24T10:36:03.281Z,1038.5
2019-02-24T10:37:03.727Z,1038.5
2019-02-24T10:38:04.111Z,1038.5
2019-02-24T10:39:03.301Z,1038.5
2019-02-24T10:40:03.452Z,1038.6
2019-02-24T10:41:02.392Z,1038.7
2019-02-24T10:42:03.873Z,1038.7
2019-02-24T10:43:03.508Z,1038.6
2019-02-24T10:44:03.762Z,1038.8
2019-02-24T10:45:03.347Z,1038.5
2019-02-24T10:46:03.325Z,1038.5
2019-02-24T10:47:03.268Z,1038.7
2019-02-24T10:48:03.654Z,1038.7
2019-02-24T10:49:04.090Z,1038.6
2019-02-24T10:50:03.355Z,1038.7
2019-02-24T10:51:03.796Z,1038.8
2019-02-24T10:52:03.000Z,1038.6
2019-02-24T10:53:03.701Z,1038.7
2019-02-24T10:54:03.194Z,1038.6
2019-02-24T10:55:02.938Z,1038.6
2019-02-24T10:56:03.877Z,1038.6
2019-02-24T10:57:03.531Z,1038.7
2019-02-24T10:58:03.702Z,1038.6
2019-02-24T10:59:03.578Z,1038.7
2019-02-24T11:00:03.936Z,1038.5
2019-02-24T11:01:03.713Z,1038.7
2019-02-24T11:02:03.175Z,1038.7
2019-02-24T11:03:03.296Z,1038.8
2019-02-24T11:04:03.854Z,1038.8
2019-02-24T11:05:03.082Z,1038.8
2019-02-24T11:06:03.684Z,1038.9
2019-02-24T11:07:03.102Z,1038.8
2019-02-24T11:08:03.378Z,1038.9
2019-02-24T11:09:03.513Z,1038.7
2019-02-24T11:10:04.401Z,1038.8
2019-02-24T11:11:03.446Z,1038.8
2019-02-24T11:12:03.553Z,1038.7
2019-02-24T11:13:03.017Z,1038.8
2019-02-24T11:14:04.157Z,1039
2019-02-24T11:15:03.436Z,1039.1
2019-02-24T11:16:03.717Z,1038.9
2019-02-24T11:17:03.446Z,1039
2019-02-24T11:18:03.108Z,1039
2019-02-24T11:19:03.754Z,1039
2019-02-24T11:20:03.419Z,1038.9
2019-02-24T11:21:03.657Z,1038.9
2019-02-24T11:22:03.222Z,1038.8
2019-02-24T11:23:03.437Z,1038.9
2019-02-24T11:24:03.064Z,1038.8
2019-02-24T11:25:03.375Z,1038.9
2019-02-24T11:26:03.683Z,1038.8
2019-02-24T11:27:03.668Z,1038.9
2019-02-24T11:28:03.632Z,1038.8
2019-02-24T11:29:03.230Z,1038.8
2019-02-24T11:30:03.281Z,1038.8
2019-02-24T11:31:02.924Z,1038.8
2019-02-24T11:32:03.416Z,1038.8
2019-02-24T11:33:03.079Z,1038.8
2019-02-24T11:34:03.592Z,1038.8
2019-02-24T11:35:03.341Z,1038.8
2019-02-24T11:36:03.595Z,1038.8
2019-02-24T11:37:03.462Z,1038.9
2019-02-24T11:38:03.432Z,1038.9
2019-02-24T11:39:03.910Z,1038.9
2019-02-24T11:40:03.152Z,1038.8
2019-02-24T11:41:02.901Z,1038.9
2019-02-24T11:42:03.604Z,1038.9
2019-02-24T11:43:03.567Z,1039
2019-02-24T11:44:03.226Z,1038.9
2019-02-24T11:45:03.990Z,1039.1
2019-02-24T11:46:02.913Z,1039
2019-02-24T11:47:03.846Z,1039
2019-02-24T11:48:03.215Z,1039
2019-02-24T11:49:03.777Z,1038.9
2019-02-24T11:50:03.331Z,1039
2019-02-24T11:51:03.545Z,1038.9
2019-02-24T11:52:04.438Z,1039
2019-02-24T11:53:03.777Z,1038.9
2019-02-24T11:54:03.047Z,1038.9
2019-02-24T11:55:03.422Z,1039
2019-02-24T11:56:03.793Z,1038.8
2019-02-24T11:57:03.157Z,1038.8
2019-02-24T11:58:03.860Z,1039
2019-02-24T11:59:03.076Z,1038.9
2019-02-24T12:00:03.878Z,1038.8
2019-02-24T12:01:03.189Z,1038.7
2019-02-24T12:02:03.870Z,1038.8
2019-02-24T12:03:03.202Z,1038.8
2019-02-24T12:04:03.752Z,1038.7
2019-02-24T12:05:03.152Z,1038.6
2019-02-24T12:06:03.762Z,1038.6
2019-02-24T12:07:03.893Z,1038.6
2019-02-24T12:08:03.149Z,1038.6
2019-02-24T12:09:05.835Z,1038.7
2019-02-24T12:10:03.177Z,1038.8
2019-02-24T12:11:03.609Z,1038.7
2019-02-24T12:12:03.222Z,1038.7
2019-02-24T12:13:03.755Z,1038.7
2019-02-24T12:14:03.992Z,1038.7
2019-02-24T12:15:03.701Z,1038.6
2019-02-24T12:16:03.570Z,1038.6
2019-02-24T12:17:03.418Z,1038.5
2019-02-24T12:18:03.809Z,1038.5
2019-02-24T12:19:03.484Z,1038.6
2019-02-24T12:20:03.738Z,1038.6
2019-02-24T12:21:03.209Z,1038.5
2019-02-24T12:22:03.289Z,1038.5
2019-02-24T12:23:03.763Z,1038.4
2019-02-24T12:24:03.733Z,1038.4
2019-02-24T12:25:03.697Z,1038.2
2019-02-24T12:26:03.189Z,1038.2
2019-02-24T12:27:03.376Z,1038.3
2019-02-24T12:28:03.644Z,1038.2
2019-02-24T12:29:03.983Z,1038.2
2019-02-24T12:30:03.447Z,1038.3
2019-02-24T12:31:03.946Z,1038.3